Time;durP1;ratioP1;P1;durP2;ratioP2;P2;SDS_P1;SDS_P2;PMS_P1;PMS_P2;Temp;Humidity;BMP_temperature;BMP_pressure;BME280_temperature;BME280_humidity;BME280_pressure;Samples;Min_cycle;Max_cycle;Signal;HPM_P1;HPM_P2
2021/10/03 00:01:57;;;;;;;48.78;27.77;;;;;;;;;;5110695;28;20038;-69
2021/10/03 00:04:25;;;;;;;44.47;27.73;;;;;;;;;;5110575;28;20028;-69
2021/10/03 00:06:52;;;;;;;48.85;27.85;;;;;;;;;;5108644;28;20411;-69
2021/10/03 00:09:18;;;;;;;57.08;30.33;;;;;;;;;;5108838;28;20459;-68
2021/10/03 00:11:45;;;;;;;52.83;30.02;;;;;;;;;;5108893;28;20051;-69
2021/10/03 00:14:12;;;;;;;53.78;30.33;;;;;;;;;;5108717;28;20051;-68
2021/10/03 00:16:38;;;;;;;54.38;30.13;;;;;;;;;;5112514;28;20102;-68
2021/10/03 00:19:04;;;;;;;51.80;26.98;;;;;;;;;;5110348;28;20019;-68
2021/10/03 00:21:31;;;;;;;39.65;25.15;;;;;;;;;;5108460;28;20514;-68
2021/10/03 00:23:57;;;;;;;43.13;26.80;;;;;;;;;;5108801;28;20071;-68
2021/10/03 00:26:23;;;;;;;54.63;27.95;;;;;;;;;;5108489;28;20101;-68
2021/10/03 00:28:49;;;;;;;53.35;30.75;;;;;;;;;;5111106;28;20024;-68
2021/10/03 00:31:15;;;;;;;62.53;31.85;;;;;;;;;;5108425;28;20055;-68
2021/10/03 00:33:41;;;;;;;56.25;32.10;;;;;;;;;;5108287;28;20098;-68
2021/10/03 00:36:07;;;;;;;63.78;31.92;;;;;;;;;;5107862;28;20080;-67
2021/10/03 00:38:33;;;;;;;60.10;32.67;;;;;;;;;;5110376;28;20068;-68
2021/10/03 00:40:59;;;;;;;46.47;26.02;;;;;;;;;;5114517;28;20040;-67
2021/10/03 00:43:25;;;;;;;41.63;23.73;;;;;;;;;;5115123;28;20103;-67
2021/10/03 00:45:52;;;;;;;42.00;27.02;;;;;;;;;;5112515;28;20119;-68
2021/10/03 00:48:18;;;;;;;49.50;28.58;;;;;;;;;;5111815;28;20023;-68
2021/10/03 00:50:45;;;;;;;60.17;30.08;;;;;;;;;;5112621;28;20030;-68
2021/10/03 00:53:12;;;;;;;58.20;31.83;;;;;;;;;;5112811;28;20061;-68
2021/10/03 00:55:39;;;;;;;67.45;32.75;;;;;;;;;;5116127;28;20024;-68
2021/10/03 00:58:05;;;;;;;67.80;33.65;;;;;;;;;;5114150;28;20071;-68
2021/10/03 01:00:32;;;;;;;70.82;34.85;;;;;;;;;;5112108;28;20080;-68
2021/10/03 01:03:02;;;;;;;76.93;36.88;;;;;;;;;;5112102;28;20031;-68
2021/10/03 01:05:28;;;;;;;96.55;41.63;;;;;;;;;;5112767;28;20028;-68
2021/10/03 01:07:55;;;;;;;112.60;46.22;;;;;;;;;;5114156;28;20069;-68
2021/10/03 01:10:25;;;;;;;143.70;54.20;;;;;;;;;;5113975;28;20027;-68
2021/10/03 01:12:54;;;;;;;153.50;56.45;;;;;;;;;;5112120;28;20034;-68
2021/10/03 01:15:20;;;;;;;148.48;55.50;;;;;;;;;;5111913;28;20031;-68
2021/10/03 01:17:46;;;;;;;142.45;54.65;;;;;;;;;;5111741;28;20032;-68
2021/10/03 01:20:12;;;;;;;75.13;39.00;;;;;;;;;;5111698;28;20447;-69
2021/10/03 01:22:38;;;;;;;66.60;34.80;;;;;;;;;;5115592;28;20077;-68
2021/10/03 01:25:07;;;;;;;70.20;37.92;;;;;;;;;;5113559;28;20039;-67
2021/10/03 01:27:33;;;;;;;80.40;40.38;;;;;;;;;;5112051;28;20026;-67
2021/10/03 01:29:59;;;;;;;98.53;44.10;;;;;;;;;;5111823;28;20050;-68
2021/10/03 01:32:25;;;;;;;113.78;47.92;;;;;;;;;;5111800;28;20020;-68
2021/10/03 01:34:51;;;;;;;153.23;56.55;;;;;;;;;;5114125;28;20471;-68
2021/10/03 01:37:17;;;;;;;150.13;55.85;;;;;;;;;;5112477;28;20051;-68
2021/10/03 01:39:43;;;;;;;155.55;56.25;;;;;;;;;;5111843;28;20031;-68
2021/10/03 01:42:09;;;;;;;153.40;58.95;;;;;;;;;;5111440;28;20029;-68
2021/10/03 01:44:35;;;;;;;153.75;61.95;;;;;;;;;;5111808;28;20039;-68
2021/10/03 01:47:01;;;;;;;148.35;59.08;;;;;;;;;;5112277;28;20030;-68
2021/10/03 01:49:28;;;;;;;139.95;57.15;;;;;;;;;;5113264;28;20110;-68
2021/10/03 01:51:54;;;;;;;143.45;58.95;;;;;;;;;;5111091;28;20551;-68
2021/10/03 01:54:20;;;;;;;141.55;59.42;;;;;;;;;;5111393;28;20039;-68
2021/10/03 01:56:46;;;;;;;133.40;55.35;;;;;;;;;;5111274;28;20134;-68
2021/10/03 01:59:12;;;;;;;133.43;56.88;;;;;;;;;;5111098;28;20522;-68
2021/10/03 02:01:43;;;;;;;122.03;56.22;;;;;;;;;;5114378;28;20523;-68
2021/10/03 02:04:16;;;;;;;105.00;50.20;;;;;;;;;;5112143;28;20036;-68
2021/10/03 02:06:44;;;;;;;91.85;47.78;;;;;;;;;;5111299;28;20042;-68
2021/10/03 02:09:11;;;;;;;107.82;51.30;;;;;;;;;;5111144;28;20024;-68
2021/10/03 02:11:40;;;;;;;114.85;50.80;;;;;;;;;;5111105;27;20145;-68
2021/10/03 02:14:06;;;;;;;134.65;56.28;;;;;;;;;;5111415;28;20046;-68
2021/10/03 02:16:31;;;;;;;136.65;55.75;;;;;;;;;;5114327;28;20514;-68
2021/10/03 02:18:57;;;;;;;144.82;57.28;;;;;;;;;;5110797;28;20096;-67
2021/10/03 02:21:24;;;;;;;141.68;56.95;;;;;;;;;;5104781;28;20019;-68
2021/10/03 02:23:49;;;;;;;152.35;56.08;;;;;;;;;;5111025;28;20067;-68
2021/10/03 02:26:16;;;;;;;167.15;60.47;;;;;;;;;;5111092;28;20478;-68
2021/10/03 02:28:42;;;;;;;161.57;59.20;;;;;;;;;;5113584;28;20106;-68
2021/10/03 02:31:11;;;;;;;152.43;57.88;;;;;;;;;;5111400;28;20087;-68
2021/10/03 02:33:37;;;;;;;140.52;56.08;;;;;;;;;;5110312;27;20012;-68
2021/10/03 02:36:04;;;;;;;142.82;55.97;;;;;;;;;;5110361;28;20023;-68
2021/10/03 02:38:30;;;;;;;136.98;55.60;;;;;;;;;;5110532;28;20052;-68
2021/10/03 02:40:57;;;;;;;126.50;54.13;;;;;;;;;;5112452;28;20028;-68
2021/10/03 02:43:24;;;;;;;129.35;52.90;;;;;;;;;;5111867;28;20020;-68
2021/10/03 02:45:51;;;;;;;134.97;53.53;;;;;;;;;;5110515;28;20092;-69
2021/10/03 02:48:18;;;;;;;133.48;52.65;;;;;;;;;;5110543;28;20023;-68
2021/10/03 02:50:46;;;;;;;139.15;54.97;;;;;;;;;;5110122;28;20085;-68
2021/10/03 02:53:12;;;;;;;135.77;53.50;;;;;;;;;;5110022;28;20490;-68
2021/10/03 02:55:38;;;;;;;112.82;50.95;;;;;;;;;;5114050;28;20466;-68
2021/10/03 02:58:05;;;;;;;177.73;45.08;;;;;;;;;;5110058;28;20027;-68
2021/10/03 03:00:32;;;;;;;85.30;44.05;;;;;;;;;;5109986;28;20023;-68
2021/10/03 03:02:58;;;;;;;98.97;46.03;;;;;;;;;;5110180;28;20118;-68
2021/10/03 03:05:24;;;;;;;110.35;47.75;;;;;;;;;;5110229;28;20111;-68
2021/10/03 03:07:50;;;;;;;126.78;52.28;;;;;;;;;;5112585;28;20023;-68
2021/10/03 03:10:16;;;;;;;117.45;50.15;;;;;;;;;;5110885;28;20563;-68
2021/10/03 03:12:42;;;;;;;114.13;50.72;;;;;;;;;;5109384;28;20019;-67
2021/10/03 03:15:09;;;;;;;127.70;52.88;;;;;;;;;;5109768;28;20375;-68
2021/10/03 03:17:36;;;;;;;113.15;50.40;;;;;;;;;;5109958;28;20083;-68
2021/10/03 03:20:04;;;;;;;110.43;48.58;;;;;;;;;;5110758;28;20036;-67
2021/10/03 03:22:30;;;;;;;113.07;48.58;;;;;;;;;;5112637;28;20127;-67
2021/10/03 03:24:56;;;;;;;102.43;46.22;;;;;;;;;;5109047;28;20039;-67
2021/10/03 03:27:22;;;;;;;106.70;46.83;;;;;;;;;;5109408;28;20402;-68
2021/10/03 03:29:48;;;;;;;103.22;47.90;;;;;;;;;;5109549;28;20096;-68
2021/10/03 03:32:14;;;;;;;91.93;45.05;;;;;;;;;;5109350;28;20028;-67
2021/10/03 03:34:40;;;;;;;93.40;44.92;;;;;;;;;;5112625;28;20464;-67
2021/10/03 03:37:06;;;;;;;85.10;41.97;;;;;;;;;;5109779;28;20077;-68
2021/10/03 03:39:32;;;;;;;78.40;41.78;;;;;;;;;;5109371;28;20035;-68
2021/10/03 03:41:58;;;;;;;98.13;45.95;;;;;;;;;;5108976;28;20144;-68
2021/10/03 03:44:24;;;;;;;102.20;46.80;;;;;;;;;;5109635;28;20107;-68
2021/10/03 03:46:50;;;;;;;99.93;48.35;;;;;;;;;;5111172;28;20026;-68
2021/10/03 03:49:16;;;;;;;104.05;46.05;;;;;;;;;;5110523;28;20106;-67
2021/10/03 03:51:42;;;;;;;109.55;46.33;;;;;;;;;;5108991;28;20024;-67
2021/10/03 03:54:08;;;;;;;108.85;46.65;;;;;;;;;;5109075;28;20027;-67
2021/10/03 03:56:34;;;;;;;119.30;49.35;;;;;;;;;;5109148;28;20026;-67
2021/10/03 03:59:00;;;;;;;121.65;47.22;;;;;;;;;;5109980;28;20024;-68
2021/10/03 04:01:27;;;;;;;106.47;47.20;;;;;;;;;;5111198;28;20110;-68
2021/10/03 04:03:53;;;;;;;108.43;47.92;;;;;;;;;;5109091;28;20126;-67
2021/10/03 04:06:19;;;;;;;110.82;45.33;;;;;;;;;;5109220;28;20015;-68
2021/10/03 04:08:45;;;;;;;94.43;45.50;;;;;;;;;;5108205;28;20371;-68
2021/10/03 04:11:13;;;;;;;92.32;46.33;;;;;;;;;;5108859;28;20027;-67
2021/10/03 04:13:39;;;;;;;109.57;51.25;;;;;;;;;;5111888;28;20023;-68
2021/10/03 04:16:05;;;;;;;114.00;48.35;;;;;;;;;;5110834;28;20073;-68
2021/10/03 04:18:31;;;;;;;112.22;48.42;;;;;;;;;;5108607;28;20031;-68
2021/10/03 04:20:57;;;;;;;123.07;50.13;;;;;;;;;;5108524;28;20023;-68
2021/10/03 04:23:23;;;;;;;120.97;49.60;;;;;;;;;;5108644;28;20040;-68
2021/10/03 04:25:49;;;;;;;117.00;47.85;;;;;;;;;;5110790;28;20089;-68
2021/10/03 04:28:15;;;;;;;115.13;47.85;;;;;;;;;;5109977;28;20031;-68
2021/10/03 04:30:42;;;;;;;109.40;46.75;;;;;;;;;;5108269;28;20032;-68
2021/10/03 04:33:08;;;;;;;117.47;48.33;;;;;;;;;;5108172;28;20046;-69
2021/10/03 04:35:35;;;;;;;96.50;45.25;;;;;;;;;;5103991;28;20475;-68
2021/10/03 04:38:01;;;;;;;106.07;48.53;;;;;;;;;;5108836;28;20028;-68
2021/10/03 04:40:27;;;;;;;100.05;45.60;;;;;;;;;;5110445;28;20039;-68
2021/10/03 04:42:53;;;;;;;95.07;43.45;;;;;;;;;;5108666;28;20471;-68
2021/10/03 04:45:19;;;;;;;92.80;43.88;;;;;;;;;;5108558;28;20035;-68
2021/10/03 04:47:46;;;;;;;93.50;44.03;;;;;;;;;;5107950;28;20039;-68
2021/10/03 04:50:12;;;;;;;83.03;42.65;;;;;;;;;;5108474;28;20103;-68
2021/10/03 04:52:43;;;;;;;85.05;43.25;;;;;;;;;;5112344;28;20032;-68
2021/10/03 04:55:10;;;;;;;104.22;47.65;;;;;;;;;;5109098;28;20535;-69
2021/10/03 04:57:36;;;;;;;106.65;45.97;;;;;;;;;;5108546;28;20055;-69
2021/10/03 05:00:03;;;;;;;121.75;48.42;;;;;;;;;;5108447;28;20035;-69
2021/10/03 05:02:29;;;;;;;122.72;49.30;;;;;;;;;;5106465;28;20020;-68
2021/10/03 05:04:55;;;;;;;119.53;48.83;;;;;;;;;;5110408;28;20043;-68
2021/10/03 05:07:21;;;;;;;132.18;50.25;;;;;;;;;;5110023;28;20102;-68
2021/10/03 05:09:47;;;;;;;134.98;51.00;;;;;;;;;;5107720;28;20038;-68
2021/10/03 05:12:13;;;;;;;137.05;50.42;;;;;;;;;;5107739;28;20539;-68
2021/10/03 05:14:39;;;;;;;136.23;49.58;;;;;;;;;;5108399;28;20043;-68
2021/10/03 05:17:05;;;;;;;127.78;49.95;;;;;;;;;;5108953;28;20016;-68
2021/10/03 05:19:31;;;;;;;124.32;48.38;;;;;;;;;;5110861;28;20024;-68
2021/10/03 05:21:57;;;;;;;121.30;46.97;;;;;;;;;;5108345;28;20524;-68
2021/10/03 05:24:23;;;;;;;127.13;47.08;;;;;;;;;;5107676;28;20038;-69
2021/10/03 05:26:49;;;;;;;141.60;49.65;;;;;;;;;;5111549;28;20077;-68
2021/10/03 05:29:15;;;;;;;133.13;50.50;;;;;;;;;;5111896;28;20503;-68
2021/10/03 05:31:41;;;;;;;136.98;49.70;;;;;;;;;;5115197;28;20030;-68
2021/10/03 05:34:07;;;;;;;136.00;47.78;;;;;;;;;;5112147;28;20028;-68
2021/10/03 05:36:33;;;;;;;127.88;48.10;;;;;;;;;;5111907;28;20550;-68
2021/10/03 05:39:00;;;;;;;131.50;45.85;;;;;;;;;;5111223;28;20056;-68
2021/10/03 05:41:26;;;;;;;126.72;46.63;;;;;;;;;;5111845;28;20016;-68
2021/10/03 05:43:52;;;;;;;107.18;45.67;;;;;;;;;;5114132;28;20031;-68
2021/10/03 05:46:18;;;;;;;107.97;48.05;;;;;;;;;;5112145;28;20102;-68
2021/10/03 05:48:44;;;;;;;110.30;48.17;;;;;;;;;;5111543;28;20479;-68
2021/10/03 05:51:10;;;;;;;97.88;44.88;;;;;;;;;;5111358;28;20024;-68
2021/10/03 05:53:36;;;;;;;106.10;46.65;;;;;;;;;;5111565;28;20463;-68
2021/10/03 05:56:03;;;;;;;106.60;44.85;;;;;;;;;;5112211;28;20403;-68
2021/10/03 05:58:30;;;;;;;107.53;46.42;;;;;;;;;;5113852;28;20028;-68
2021/10/03 06:00:56;;;;;;;98.70;45.45;;;;;;;;;;5111204;28;20031;-68
2021/10/03 06:03:22;;;;;;;101.03;46.80;;;;;;;;;;5111502;28;20113;-68
2021/10/03 06:05:48;;;;;;;103.75;48.45;;;;;;;;;;5111372;28;20493;-68
2021/10/03 06:08:15;;;;;;;108.45;48.97;;;;;;;;;;5111122;28;20119;-68
2021/10/03 06:10:41;;;;;;;99.28;47.45;;;;;;;;;;5114198;28;20107;-68
2021/10/03 06:13:07;;;;;;;103.63;47.08;;;;;;;;;;5110374;28;20027;-68
2021/10/03 06:15:34;;;;;;;105.15;48.00;;;;;;;;;;5110895;28;20029;-68
2021/10/03 06:18:00;;;;;;;96.47;47.92;;;;;;;;;;5111113;28;20084;-68
2021/10/03 06:20:26;;;;;;;104.03;47.45;;;;;;;;;;5110828;28;20085;-69
2021/10/03 06:22:52;;;;;;;111.38;48.25;;;;;;;;;;5113087;28;20036;-68
2021/10/03 06:25:18;;;;;;;106.30;49.70;;;;;;;;;;5111541;28;20036;-68
2021/10/03 06:27:44;;;;;;;100.30;45.50;;;;;;;;;;5110825;28;20034;-68
2021/10/03 06:30:11;;;;;;;99.80;45.63;;;;;;;;;;5110542;28;20147;-65
2021/10/03 06:32:38;;;;;;;109.57;49.45;;;;;;;;;;5110970;28;20419;-65
2021/10/03 06:35:04;;;;;;;92.25;44.53;;;;;;;;;;5110739;28;20108;-65
2021/10/03 06:37:30;;;;;;;84.97;44.60;;;;;;;;;;5113216;28;20504;-65
2021/10/03 06:39:56;;;;;;;103.43;47.13;;;;;;;;;;5110413;28;20478;-65
2021/10/03 06:42:22;;;;;;;113.10;48.45;;;;;;;;;;5110661;28;20034;-65
2021/10/03 06:44:48;;;;;;;107.47;47.67;;;;;;;;;;5110455;28;20036;-65
2021/10/03 06:47:14;;;;;;;100.70;46.92;;;;;;;;;;5110342;28;20039;-65
2021/10/03 06:49:41;;;;;;;88.82;44.97;;;;;;;;;;5113142;28;20024;-65
2021/10/03 06:52:08;;;;;;;91.43;45.67;;;;;;;;;;5111006;28;20038;-65
2021/10/03 06:54:34;;;;;;;93.17;45.70;;;;;;;;;;5110092;28;20049;-65
2021/10/03 06:57:00;;;;;;;92.82;44.60;;;;;;;;;;5110486;28;20023;-65
2021/10/03 06:59:26;;;;;;;94.32;48.08;;;;;;;;;;5110191;28;20026;-65
2021/10/03 07:01:53;;;;;;;93.10;48.03;;;;;;;;;;5111925;28;20020;-65
2021/10/03 07:04:19;;;;;;;103.57;48.20;;;;;;;;;;5110722;27;20096;-65
2021/10/03 07:06:45;;;;;;;92.93;46.25;;;;;;;;;;5110198;28;20467;-65
2021/10/03 07:09:11;;;;;;;96.38;48.50;;;;;;;;;;5109761;28;20042;-65
2021/10/03 07:11:37;;;;;;;88.53;48.47;;;;;;;;;;5109885;28;20443;-65
2021/10/03 07:14:03;;;;;;;94.05;45.88;;;;;;;;;;5110234;28;20079;-65
2021/10/03 07:16:29;;;;;;;100.00;47.30;;;;;;;;;;5112766;28;20023;-65
2021/10/03 07:18:55;;;;;;;104.97;47.83;;;;;;;;;;5109752;28;20047;-65
2021/10/03 07:21:21;;;;;;;98.05;47.78;;;;;;;;;;5109776;28;20020;-65
2021/10/03 07:23:47;;;;;;;104.63;46.13;;;;;;;;;;5109220;28;20045;-65
2021/10/03 07:26:13;;;;;;;118.57;49.67;;;;;;;;;;5109556;28;20024;-65
2021/10/03 07:28:39;;;;;;;107.90;48.10;;;;;;;;;;5113066;28;20020;-65
2021/10/03 07:31:05;;;;;;;101.05;47.80;;;;;;;;;;5111254;28;20036;-65
2021/10/03 07:33:32;;;;;;;107.20;48.97;;;;;;;;;;5109284;28;20068;-65
2021/10/03 07:35:58;;;;;;;82.72;43.83;;;;;;;;;;5109358;28;20024;-65
2021/10/03 07:38:24;;;;;;;93.55;44.83;;;;;;;;;;5109374;28;20107;-66
2021/10/03 07:40:50;;;;;;;82.25;43.25;;;;;;;;;;5111861;28;20119;-66
2021/10/03 07:43:16;;;;;;;83.75;42.78;;;;;;;;;;5110685;28;20023;-66
2021/10/03 07:45:42;;;;;;;82.45;42.97;;;;;;;;;;5108901;28;20038;-66
2021/10/03 07:48:08;;;;;;;82.70;42.70;;;;;;;;;;5107712;28;20015;-64
2021/10/03 07:50:34;;;;;;;82.63;42.28;;;;;;;;;;5109415;28;20028;-64
2021/10/03 07:53:00;;;;;;;72.68;40.28;;;;;;;;;;5110500;28;20427;-64
2021/10/03 07:55:30;;;;;;;75.05;38.30;;;;;;;;;;5110173;28;20047;-64
2021/10/03 07:58:03;;;;;;;71.90;40.05;;;;;;;;;;5108400;28;20081;-64
2021/10/03 08:00:29;;;;;;;89.75;45.40;;;;;;;;;;5109149;28;20391;-64
2021/10/03 08:02:55;;;;;;;131.82;65.03;;;;;;;;;;5108932;28;20463;-66
2021/10/03 08:05:21;;;;;;;75.10;41.55;;;;;;;;;;5109045;28;20042;-66
2021/10/03 08:07:47;;;;;;;82.85;43.97;;;;;;;;;;5111448;28;20069;-65
2021/10/03 08:10:13;;;;;;;72.45;40.75;;;;;;;;;;5109331;28;20121;-64
2021/10/03 08:12:39;;;;;;;81.72;45.00;;;;;;;;;;5108967;28;20109;-66
2021/10/03 08:15:05;;;;;;;81.97;44.47;;;;;;;;;;5103119;28;20050;-64
2021/10/03 08:17:31;;;;;;;74.97;42.13;;;;;;;;;;5108664;28;20023;-64
2021/10/03 08:19:57;;;;;;;79.30;40.10;;;;;;;;;;5109829;28;20031;-64
2021/10/03 08:22:23;;;;;;;77.43;40.42;;;;;;;;;;5110245;28;20024;-65
2021/10/03 08:24:49;;;;;;;82.30;41.70;;;;;;;;;;5108635;28;20039;-64
2021/10/03 08:27:15;;;;;;;80.13;41.13;;;;;;;;;;5108510;28;20020;-64
2021/10/03 08:29:41;;;;;;;74.55;42.55;;;;;;;;;;5108472;28;20047;-65
2021/10/03 08:32:07;;;;;;;79.55;42.50;;;;;;;;;;5107875;28;20425;-65
2021/10/03 08:34:33;;;;;;;66.85;37.63;;;;;;;;;;5112030;28;20371;-65
2021/10/03 08:36:59;;;;;;;68.47;41.47;;;;;;;;;;5108950;28;20474;-65
2021/10/03 08:39:25;;;;;;;74.70;41.00;;;;;;;;;;5108617;28;20023;-65
2021/10/03 08:41:51;;;;;;;68.53;37.58;;;;;;;;;;5108345;28;20028;-65
2021/10/03 08:44:18;;;;;;;82.20;43.25;;;;;;;;;;5108531;28;20035;-65
2021/10/03 08:46:44;;;;;;;73.57;38.83;;;;;;;;;;5110891;28;20100;-65
2021/10/03 08:49:10;;;;;;;79.00;40.88;;;;;;;;;;5109063;28;20028;-65
2021/10/03 08:51:36;;;;;;;85.57;43.33;;;;;;;;;;5108529;28;20051;-65
2021/10/03 08:54:02;;;;;;;77.90;39.13;;;;;;;;;;5108149;28;20787;-65
2021/10/03 08:56:28;;;;;;;71.28;38.60;;;;;;;;;;5108595;28;20407;-64
2021/10/03 08:58:54;;;;;;;74.03;40.08;;;;;;;;;;5111037;28;20035;-65
2021/10/03 09:01:21;;;;;;;69.28;38.55;;;;;;;;;;5113918;28;20027;-64
2021/10/03 09:03:49;;;;;;;73.43;40.13;;;;;;;;;;5106513;28;20042;-65
2021/10/03 09:06:15;;;;;;;69.65;37.40;;;;;;;;;;5112212;28;20621;-65
2021/10/03 09:08:43;;;;;;;71.88;39.35;;;;;;;;;;5111952;28;20023;-65
2021/10/03 09:11:17;;;;;;;77.55;41.03;;;;;;;;;;5095778;28;20020;-65
2021/10/03 09:13:50;;;;;;;65.80;36.80;;;;;;;;;;5111941;28;20026;-65
2021/10/03 09:16:18;;;;;;;69.68;38.70;;;;;;;;;;5115480;28;20028;-65
2021/10/03 09:18:45;;;;;;;72.40;39.50;;;;;;;;;;5111788;28;20081;-65
2021/10/03 09:21:30;;;;;;;74.63;41.33;;;;;;;;;;5112021;28;20382;-65
2021/10/03 09:24:02;;;;;;;78.72;42.22;;;;;;;;;;5111659;28;20122;-65
2021/10/03 09:26:28;;;;;;;80.68;40.22;;;;;;;;;;5112096;28;20112;-65
2021/10/03 09:28:54;;;;;;;79.22;42.15;;;;;;;;;;5113768;28;20455;-65
2021/10/03 09:31:21;;;;;;;73.35;40.05;;;;;;;;;;5113178;28;20148;-65
2021/10/03 09:33:54;;;;;;;79.57;43.88;;;;;;;;;;5111886;28;20031;-66
2021/10/03 09:36:25;;;;;;;77.45;43.08;;;;;;;;;;5105573;28;20128;-66
2021/10/03 09:39:03;;;;;;;87.53;45.10;;;;;;;;;;5111179;28;20558;-65
2021/10/03 09:41:30;;;;;;;86.20;42.53;;;;;;;;;;5111801;28;20124;-65
2021/10/03 09:44:09;;;;;;;81.20;42.25;;;;;;;;;;5113216;28;20059;-66
2021/10/03 09:46:46;;;;;;;83.18;43.90;;;;;;;;;;5114715;28;20165;-66
2021/10/03 09:49:12;;;;;;;82.22;43.13;;;;;;;;;;5113896;28;20031;-66
2021/10/03 09:51:39;;;;;;;76.90;41.00;;;;;;;;;;5110953;28;20375;-65
2021/10/03 09:54:06;;;;;;;73.53;37.90;;;;;;;;;;5111069;28;20055;-65
2021/10/03 09:56:32;;;;;;;88.57;41.17;;;;;;;;;;5111592;28;20020;-65
2021/10/03 09:58:59;;;;;;;85.22;43.25;;;;;;;;;;5113122;28;20098;-65
2021/10/03 10:01:25;;;;;;;89.63;43.50;;;;;;;;;;5113482;28;20031;-66
2021/10/03 10:03:51;;;;;;;67.45;34.35;;;;;;;;;;5104842;28;20115;-66
2021/10/03 10:06:17;;;;;;;74.18;38.55;;;;;;;;;;5111245;28;20023;-66
2021/10/03 10:08:44;;;;;;;71.53;37.85;;;;;;;;;;5111064;28;20156;-66
2021/10/03 10:11:16;;;;;;;70.68;38.03;;;;;;;;;;5109146;28;20042;-65
2021/10/03 10:13:48;;;;;;;40.45;23.50;;;;;;;;;;5110016;28;20323;-65
2021/10/03 10:16:27;;;;;;;36.83;21.90;;;;;;;;;;5111863;28;20062;-65
2021/10/03 10:19:13;;;;;;;33.65;19.95;;;;;;;;;;5110991;28;20095;-65
2021/10/03 10:21:39;;;;;;;21.65;12.98;;;;;;;;;;5110788;28;20034;-65
2021/10/03 10:24:44;;;;;;;19.48;12.10;;;;;;;;;;5110088;28;20110;-65
2021/10/03 10:27:22;;;;;;;18.65;11.52;;;;;;;;;;5030036;28;20037;-65
2021/10/03 10:29:48;;;;;;;18.15;11.63;;;;;;;;;;5030561;28;20064;-65
2021/10/03 10:32:14;;;;;;;23.30;12.80;;;;;;;;;;5074181;28;20041;-65
2021/10/03 10:34:59;;;;;;;23.70;14.10;;;;;;;;;;5114048;28;20024;-64
2021/10/03 10:37:45;;;;;;;27.27;16.02;;;;;;;;;;5110966;28;20027;-65
2021/10/03 10:40:23;;;;;;;32.22;17.52;;;;;;;;;;5110984;28;20042;-65
2021/10/03 10:42:49;;;;;;;26.58;16.70;;;;;;;;;;5110324;28;20534;-65
2021/10/03 10:45:27;;;;;;;26.67;14.27;;;;;;;;;;5110392;28;20062;-65
2021/10/03 10:48:11;;;;;;;26.42;15.15;;;;;;;;;;5110545;28;20107;-65
2021/10/03 10:50:40;;;;;;;26.17;15.23;;;;;;;;;;5109934;28;20055;-65
2021/10/03 10:53:15;;;;;;;25.17;14.32;;;;;;;;;;5110173;28;20046;-65
2021/10/03 10:55:42;;;;;;;18.50;12.35;;;;;;;;;;5109546;28;20026;-65
2021/10/03 10:58:09;;;;;;;29.80;17.23;;;;;;;;;;5110209;28;20027;-65
2021/10/03 11:00:46;;;;;;;26.30;15.40;;;;;;;;;;5109747;28;20026;-64
2021/10/03 11:03:13;;;;;;;25.15;13.45;;;;;;;;;;5109665;28;20032;-65
2021/10/03 11:05:45;;;;;;;17.05;11.30;;;;;;;;;;5109469;28;20039;-64
2021/10/03 11:08:13;;;;;;;25.88;14.25;;;;;;;;;;5093416;28;20022;-64
2021/10/03 11:10:59;;;;;;;23.25;15.30;;;;;;;;;;5113271;28;20166;-64
2021/10/03 11:13:44;;;;;;;23.92;13.50;;;;;;;;;;5112033;28;20047;-64
2021/10/03 11:16:23;;;;;;;28.30;15.13;;;;;;;;;;5110080;28;20040;-64
2021/10/03 11:18:53;;;;;;;21.20;12.52;;;;;;;;;;5109755;28;20400;-64
2021/10/03 11:21:29;;;;;;;27.48;14.77;;;;;;;;;;5109248;28;20077;-64
2021/10/03 11:23:56;;;;;;;22.85;14.05;;;;;;;;;;5108378;28;20088;-64
2021/10/03 11:26:23;;;;;;;21.85;13.38;;;;;;;;;;5109539;28;20391;-64
2021/10/03 11:28:57;;;;;;;22.55;13.55;;;;;;;;;;5111659;28;20028;-64
2021/10/03 11:31:41;;;;;;;25.77;15.10;;;;;;;;;;5111499;28;20531;-64
2021/10/03 11:34:07;;;;;;;24.85;14.20;;;;;;;;;;5111813;28;20042;-64
2021/10/03 11:36:33;;;;;;;27.05;16.35;;;;;;;;;;5109288;28;20088;-64
2021/10/03 11:39:00;;;;;;;24.50;14.93;;;;;;;;;;5109467;28;20031;-64
2021/10/03 11:41:28;;;;;;;29.05;16.13;;;;;;;;;;5108715;28;20534;-64
2021/10/03 11:43:55;;;;;;;28.15;15.73;;;;;;;;;;5111787;28;20040;-64
2021/10/03 11:46:21;;;;;;;28.52;16.40;;;;;;;;;;5110479;28;20588;-64
2021/10/03 11:48:51;;;;;;;29.48;15.77;;;;;;;;;;5108988;28;20020;-64
2021/10/03 11:51:17;;;;;;;28.95;16.65;;;;;;;;;;5109188;28;20027;-64
2021/10/03 11:53:53;;;;;;;27.65;18.40;;;;;;;;;;5108852;28;20104;-64
2021/10/03 11:56:19;;;;;;;30.58;17.58;;;;;;;;;;5107306;28;20433;-64
2021/10/03 11:58:46;;;;;;;25.30;16.45;;;;;;;;;;5111723;28;20019;-64
2021/10/03 12:01:13;;;;;;;39.72;21.50;;;;;;;;;;5111466;28;20027;-64
2021/10/03 12:03:46;;;;;;;28.30;16.13;;;;;;;;;;5108551;28;20019;-64
2021/10/03 12:06:20;;;;;;;25.58;15.20;;;;;;;;;;5109142;28;20024;-64
2021/10/03 12:08:48;;;;;;;25.98;14.70;;;;;;;;;;5108678;28;20326;-64
2021/10/03 12:11:15;;;;;;;27.23;15.50;;;;;;;;;;5108520;28;20032;-64
2021/10/03 12:13:42;;;;;;;28.83;15.35;;;;;;;;;;5111551;28;20030;-64
2021/10/03 12:16:26;;;;;;;29.55;14.57;;;;;;;;;;5109288;28;20027;-64
2021/10/03 12:19:05;;;;;;;28.85;16.00;;;;;;;;;;5108420;28;20024;-64
2021/10/03 12:21:32;;;;;;;28.20;15.32;;;;;;;;;;5108370;28;20059;-64
2021/10/03 12:24:04;;;;;;;31.93;16.50;;;;;;;;;;5108343;28;20047;-64
2021/10/03 12:26:34;;;;;;;29.77;17.23;;;;;;;;;;5108431;28;20264;-64
2021/10/03 12:29:02;;;;;;;30.48;17.15;;;;;;;;;;5110207;28;20092;-65
2021/10/03 12:31:27;;;;;;;;;;;;;;;;;;5111425;28;20454;-64
2021/10/03 12:33:53;;;;;;;31.13;14.20;;;;;;;;;;5107923;28;19911;-64
2021/10/03 12:36:19;;;;;;;30.88;16.73;;;;;;;;;;5108321;28;20047;-64
2021/10/03 12:38:45;;;;;;;33.60;20.38;;;;;;;;;;5107919;28;20061;-64
2021/10/03 12:41:12;;;;;;;32.70;19.05;;;;;;;;;;5108721;28;20054;-64
2021/10/03 12:43:47;;;;;;;28.15;16.85;;;;;;;;;;5111775;28;20023;-64
2021/10/03 12:46:13;;;;;;;31.98;18.02;;;;;;;;;;5111107;28;20056;-64
2021/10/03 12:48:39;;;;;;;31.60;16.77;;;;;;;;;;5108385;28;20058;-64
2021/10/03 12:51:05;;;;;;;26.35;16.50;;;;;;;;;;5107884;28;20460;-64
2021/10/03 12:53:31;;;;;;;32.00;17.80;;;;;;;;;;5107848;28;20047;-64
2021/10/03 12:55:57;;;;;;;43.65;21.98;;;;;;;;;;5110330;28;20024;-64
2021/10/03 12:58:25;;;;;;;38.97;19.55;;;;;;;;;;5110141;28;20039;-64
2021/10/03 13:00:51;;;;;;;39.03;21.00;;;;;;;;;;5108159;28;20352;-64
2021/10/03 13:03:17;;;;;;;40.08;19.23;;;;;;;;;;5107573;28;20042;-65
2021/10/03 13:05:43;;;;;;;30.88;17.75;;;;;;;;;;5107682;28;20040;-66
2021/10/03 13:08:09;;;;;;;36.47;19.73;;;;;;;;;;5108304;28;20027;-64
2021/10/03 13:10:35;;;;;;;34.38;19.88;;;;;;;;;;5111305;28;20544;-64
2021/10/03 13:13:01;;;;;;;34.40;19.50;;;;;;;;;;5108041;28;20062;-64
2021/10/03 13:15:27;;;;;;;40.80;19.88;;;;;;;;;;5108266;28;20475;-64
2021/10/03 13:17:53;;;;;;;39.50;20.15;;;;;;;;;;5107718;28;20020;-64
2021/10/03 13:20:19;;;;;;;33.30;17.52;;;;;;;;;;5107959;28;20024;-64
2021/10/03 13:22:45;;;;;;;33.33;18.25;;;;;;;;;;5110618;28;20471;-64
2021/10/03 13:25:11;;;;;;;39.50;19.95;;;;;;;;;;5109108;28;20123;-64
2021/10/03 13:27:38;;;;;;;36.63;19.40;;;;;;;;;;5108039;28;20024;-65
2021/10/03 13:30:04;;;;;;;32.08;18.33;;;;;;;;;;5107935;28;20130;-65
2021/10/03 13:32:30;;;;;;;40.85;21.55;;;;;;;;;;5107536;28;20028;-65
2021/10/03 13:34:56;;;;;;;32.42;17.73;;;;;;;;;;5109919;28;20034;-65
2021/10/03 13:37:22;;;;;;;37.10;18.58;;;;;;;;;;5109383;28;20023;-64
2021/10/03 13:39:48;;;;;;;36.60;19.05;;;;;;;;;;5107748;28;20042;-64
2021/10/03 13:42:14;;;;;;;33.20;18.27;;;;;;;;;;5108114;28;20457;-64
2021/10/03 13:44:40;;;;;;;29.90;17.20;;;;;;;;;;5107368;28;20110;-64
2021/10/03 13:47:06;;;;;;;30.35;18.70;;;;;;;;;;5110811;28;20062;-64
2021/10/03 13:49:32;;;;;;;34.13;18.80;;;;;;;;;;5114603;28;20106;-64
2021/10/03 13:51:58;;;;;;;36.13;18.73;;;;;;;;;;5110864;28;20027;-64
2021/10/03 13:54:24;;;;;;;29.17;19.02;;;;;;;;;;5111534;28;20086;-64
2021/10/03 13:56:50;;;;;;;40.13;21.55;;;;;;;;;;5111266;28;20493;-64
2021/10/03 13:59:16;;;;;;;37.05;22.25;;;;;;;;;;5111381;28;20103;-64
2021/10/03 14:01:42;;;;;;;38.67;21.67;;;;;;;;;;5114676;28;20080;-64
2021/10/03 14:04:08;;;;;;;32.60;20.08;;;;;;;;;;5110984;28;20039;-64
2021/10/03 14:06:34;;;;;;;39.90;21.83;;;;;;;;;;5110949;28;20482;-64
2021/10/03 14:09:00;;;;;;;37.50;22.40;;;;;;;;;;5111092;28;20106;-64
2021/10/03 14:11:26;;;;;;;42.78;21.92;;;;;;;;;;5110850;28;20020;-64
2021/10/03 14:13:52;;;;;;;40.92;21.73;;;;;;;;;;5113313;28;20526;-64
2021/10/03 14:16:18;;;;;;;38.47;21.25;;;;;;;;;;5112046;28;20027;-64